Time;durP1;ratioP1;P1;durP2;ratioP2;P2;SDS_P1;SDS_P2;PMS_P1;PMS_P2;Temp;Humidity;BMP_temperature;BMP_pressure;BME280_temperature;BME280_humidity;BME280_pressure;Samples;Min_cycle;Max_cycle;Signal;HPM_P1;HPM_P2
2022/09/13 00:01:21;;;;;;;1.90;1.50;;;;;;;;;;4943510;28;20531;-55
2022/09/13 00:03:47;;;;;;;4.93;1.80;;;;;;;;;;4961102;28;20520;-55
2022/09/13 00:06:17;;;;;;;1.70;1.40;;;;;;;;;;4952631;28;21169;-56
2022/09/13 00:08:43;;;;;;;1.93;1.60;;;;;;;;;;4960028;28;20447;-56
2022/09/13 00:11:16;;;;;;;3.23;1.50;;;;;;;;;;4935553;28;20449;-56
2022/09/13 00:13:42;;;;;;;3.73;1.37;;;;;;;;;;4963187;28;20457;-55
2022/09/13 00:16:10;;;;;;;2.07;1.40;;;;;;;;;;4943156;28;20506;-56
2022/09/13 00:18:36;;;;;;;4.00;2.10;;;;;;;;;;4958057;28;20449;-56
2022/09/13 00:21:13;;;;;;;5.57;1.90;;;;;;;;;;4915917;28;20504;-56
2022/09/13 00:23:40;;;;;;;2.70;1.40;;;;;;;;;;4955556;28;20193;-56
2022/09/13 00:26:13;;;;;;;2.53;1.33;;;;;;;;;;4932171;28;20438;-55
2022/09/13 00:28:39;;;;;;;3.53;1.83;;;;;;;;;;4974094;28;20970;-56
2022/09/13 00:31:05;;;;;;;3.40;1.83;;;;;;;;;;4933189;28;20890;-55
2022/09/13 00:33:31;;;;;;;3.43;1.80;;;;;;;;;;4960555;28;20512;-56
2022/09/13 00:35:58;;;;;;;1.90;1.70;;;;;;;;;;4955399;28;20475;-56
2022/09/13 00:38:24;;;;;;;2.40;1.40;;;;;;;;;;4962168;28;20544;-56
2022/09/13 00:40:50;;;;;;;2.90;1.77;;;;;;;;;;4958705;28;20529;-56
2022/09/13 00:43:17;;;;;;;3.00;1.80;;;;;;;;;;4961767;28;20438;-55
2022/09/13 00:45:43;;;;;;;2.50;1.50;;;;;;;;;;4952724;28;20445;-56
2022/09/13 00:48:11;;;;;;;2.20;1.90;;;;;;;;;;4957577;28;20446;-56
2022/09/13 00:50:38;;;;;;;3.00;1.90;;;;;;;;;;4929955;28;20441;-55
2022/09/13 00:53:12;;;;;;;3.07;1.60;;;;;;;;;;4958555;28;20848;-55
2022/09/13 00:55:40;;;;;;;2.73;1.87;;;;;;;;;;4924085;28;20441;-56
2022/09/13 00:58:10;;;;;;;2.30;1.50;;;;;;;;;;4959062;28;20434;-56
2022/09/13 01:00:37;;;;;;;3.90;2.30;;;;;;;;;;4934794;28;20517;-55
2022/09/13 01:03:04;;;;;;;2.20;1.70;;;;;;;;;;4959829;28;20442;-55
2022/09/13 01:05:32;;;;;;;4.50;1.57;;;;;;;;;;4960342;28;20465;-55
2022/09/13 01:07:58;;;;;;;3.77;1.63;;;;;;;;;;4964543;28;21419;-56
2022/09/13 01:10:26;;;;;;;2.60;1.53;;;;;;;;;;4956553;28;20473;-56
2022/09/13 01:12:56;;;;;;;3.60;2.30;;;;;;;;;;4956578;28;20481;-56
2022/09/13 01:15:23;;;;;;;4.10;2.10;;;;;;;;;;4959907;28;20460;-56
2022/09/13 01:17:49;;;;;;;2.30;1.83;;;;;;;;;;4958016;28;20481;-56
2022/09/13 01:20:14;;;;;;;4.47;2.03;;;;;;;;;;4934117;28;20556;-56
2022/09/13 01:22:49;;;;;;;4.90;1.80;;;;;;;;;;4960940;28;20469;-56
2022/09/13 01:25:18;;;;;;;2.20;1.43;;;;;;;;;;4957038;28;20476;-56
2022/09/13 01:27:44;;;;;;;2.10;1.80;;;;;;;;;;4958056;28;20477;-56
2022/09/13 01:30:19;;;;;;;1.87;1.50;;;;;;;;;;4915790;28;20453;-55
2022/09/13 01:33:01;;;;;;;2.83;1.63;;;;;;;;;;4939993;28;20506;-56
2022/09/13 01:35:45;;;;;;;2.23;1.50;;;;;;;;;;4959684;28;21011;-56
2022/09/13 01:38:31;;;;;;;2.33;2.13;;;;;;;;;;4949272;28;20690;-56
2022/09/13 01:41:06;;;;;;;4.80;2.20;;;;;;;;;;4933537;28;20780;-56
2022/09/13 01:43:47;;;;;;;2.20;1.93;;;;;;;;;;4959859;28;20991;-56
2022/09/13 01:46:16;;;;;;;2.27;2.00;;;;;;;;;;4929308;28;21250;-56
2022/09/13 01:48:51;;;;;;;3.17;1.90;;;;;;;;;;4956960;28;20439;-55
2022/09/13 01:51:20;;;;;;;5.30;1.87;;;;;;;;;;4954580;28;20464;-56
2022/09/13 01:53:51;;;;;;;2.03;1.50;;;;;;;;;;4949423;28;20450;-56
2022/09/13 01:56:20;;;;;;;3.83;2.17;;;;;;;;;;4933841;28;20954;-56
2022/09/13 01:58:52;;;;;;;2.77;1.57;;;;;;;;;;4957021;28;20442;-56
2022/09/13 02:01:19;;;;;;;2.23;2.00;;;;;;;;;;4921166;28;20461;-56
2022/09/13 02:03:49;;;;;;;1.80;1.60;;;;;;;;;;4961399;28;20453;-56
2022/09/13 02:06:16;;;;;;;2.80;2.10;;;;;;;;;;4956645;28;20650;-56
2022/09/13 02:08:47;;;;;;;3.00;2.03;;;;;;;;;;4957558;28;20524;-56
2022/09/13 02:11:13;;;;;;;2.30;1.80;;;;;;;;;;4941118;28;21078;-56
2022/09/13 02:13:42;;;;;;;4.47;1.93;;;;;;;;;;4956538;28;20443;-56
2022/09/13 02:16:11;;;;;;;5.03;2.83;;;;;;;;;;4955702;28;20926;-56
2022/09/13 02:18:38;;;;;;;2.50;2.00;;;;;;;;;;4959861;28;20454;-56
2022/09/13 02:21:10;;;;;;;4.47;2.17;;;;;;;;;;4947123;28;20802;-56
2022/09/13 02:23:38;;;;;;;2.10;1.73;;;;;;;;;;4960388;28;20441;-56
2022/09/13 02:26:04;;;;;;;2.60;2.10;;;;;;;;;;4939014;28;20760;-56
2022/09/13 02:28:36;;;;;;;3.20;2.10;;;;;;;;;;4934264;28;20442;-56
2022/09/13 02:31:02;;;;;;;2.30;2.03;;;;;;;;;;4962844;28;20532;-56
2022/09/13 02:33:28;;;;;;;2.70;1.97;;;;;;;;;;4922090;28;21128;-56
2022/09/13 02:35:55;;;;;;;3.10;2.27;;;;;;;;;;4930541;28;20451;-55
2022/09/13 02:38:23;;;;;;;2.70;1.70;;;;;;;;;;4954799;28;20442;-56
2022/09/13 02:40:52;;;;;;;2.27;2.07;;;;;;;;;;4938087;28;20549;-57
2022/09/13 02:43:27;;;;;;;5.37;3.10;;;;;;;;;;4956668;28;20963;-56
2022/09/13 02:46:09;;;;;;;2.80;2.20;;;;;;;;;;4938399;28;20442;-56
2022/09/13 02:48:37;;;;;;;3.63;2.27;;;;;;;;;;4959892;28;20438;-56
2022/09/13 02:51:05;;;;;;;2.73;2.13;;;;;;;;;;4938691;28;20959;-58
2022/09/13 02:53:52;;;;;;;3.80;2.33;;;;;;;;;;4957165;28;20479;-56
2022/09/13 02:56:18;;;;;;;3.50;1.93;;;;;;;;;;4964822;28;20446;-57
2022/09/13 02:58:44;;;;;;;2.87;2.57;;;;;;;;;;4957167;28;20445;-56
2022/09/13 03:01:10;;;;;;;2.20;1.83;;;;;;;;;;4941759;28;20500;-56
2022/09/13 03:03:36;;;;;;;3.37;2.30;;;;;;;;;;4946891;28;20434;-57
2022/09/13 03:06:02;;;;;;;3.40;2.27;;;;;;;;;;4923598;28;20437;-56
2022/09/13 03:08:28;;;;;;;2.50;1.93;;;;;;;;;;4956838;28;21152;-56
2022/09/13 03:11:00;;;;;;;2.60;1.87;;;;;;;;;;4932018;28;20194;-56
2022/09/13 03:13:45;;;;;;;3.60;2.50;;;;;;;;;;4963857;28;20528;-57
2022/09/13 03:16:43;;;;;;;2.73;2.13;;;;;;;;;;4951147;28;20421;-58
2022/09/13 03:19:15;;;;;;;3.70;2.30;;;;;;;;;;4957909;28;20704;-56
2022/09/13 03:22:01;;;;;;;2.40;1.83;;;;;;;;;;4934126;28;21210;-56
2022/09/13 03:24:30;;;;;;;2.47;2.10;;;;;;;;;;4961016;28;21105;-57
2022/09/13 03:27:02;;;;;;;3.33;2.10;;;;;;;;;;4967614;28;20427;-56
2022/09/13 03:29:43;;;;;;;2.20;2.00;;;;;;;;;;4972218;28;20528;-56
2022/09/13 03:32:15;;;;;;;3.10;2.17;;;;;;;;;;4936227;28;20544;-56
2022/09/13 03:34:50;;;;;;;2.93;2.30;;;;;;;;;;4961022;28;20441;-56
2022/09/13 03:37:16;;;;;;;4.67;2.77;;;;;;;;;;4915714;28;20484;-56
2022/09/13 03:39:43;;;;;;;2.80;2.33;;;;;;;;;;4955025;28;20489;-56
2022/09/13 03:42:12;;;;;;;4.40;2.60;;;;;;;;;;4935191;28;20191;-56
2022/09/13 03:44:38;;;;;;;3.23;2.10;;;;;;;;;;4938466;28;20438;-56
2022/09/13 03:47:04;;;;;;;4.87;2.53;;;;;;;;;;4951864;28;20450;-56
2022/09/13 03:49:30;;;;;;;2.93;2.23;;;;;;;;;;4952148;28;20465;-56
2022/09/13 03:51:56;;;;;;;2.77;2.10;;;;;;;;;;4931288;28;20477;-56
2022/09/13 03:54:27;;;;;;;2.57;2.10;;;;;;;;;;4953877;28;20451;-56
2022/09/13 03:57:13;;;;;;;3.60;2.27;;;;;;;;;;4951458;28;20812;-56
2022/09/13 03:59:49;;;;;;;2.83;2.27;;;;;;;;;;4959972;28;20611;-56
2022/09/13 04:02:16;;;;;;;3.63;2.60;;;;;;;;;;4947462;28;20430;-56
2022/09/13 04:04:42;;;;;;;4.20;2.50;;;;;;;;;;4964969;28;20449;-55
2022/09/13 04:07:08;;;;;;;2.50;2.17;;;;;;;;;;4925438;28;20434;-55
2022/09/13 04:09:34;;;;;;;2.60;2.30;;;;;;;;;;4963523;28;20457;-56
2022/09/13 04:12:00;;;;;;;3.40;3.00;;;;;;;;;;4935491;28;20563;-55
2022/09/13 04:14:27;;;;;;;2.90;2.10;;;;;;;;;;4959232;28;20953;-56
2022/09/13 04:16:53;;;;;;;3.10;2.50;;;;;;;;;;4954568;28;20533;-57
2022/09/13 04:19:19;;;;;;;2.97;2.07;;;;;;;;;;4963826;28;20464;-55
2022/09/13 04:21:47;;;;;;;2.87;2.20;;;;;;;;;;4954962;28;21123;-55
2022/09/13 04:24:14;;;;;;;3.10;2.40;;;;;;;;;;4960708;28;21121;-56
2022/09/13 04:26:40;;;;;;;2.60;2.20;;;;;;;;;;4937078;28;20552;-57
2022/09/13 04:29:06;;;;;;;4.50;2.70;;;;;;;;;;4955956;28;20529;-58
2022/09/13 04:31:32;;;;;;;3.23;2.50;;;;;;;;;;4936216;28;20439;-56
2022/09/13 04:33:58;;;;;;;2.27;2.07;;;;;;;;;;4953368;28;20465;-56
2022/09/13 04:36:27;;;;;;;3.77;2.50;;;;;;;;;;4929716;28;20450;-58
2022/09/13 04:38:53;;;;;;;5.70;2.77;;;;;;;;;;4951305;28;20544;-56
2022/09/13 04:41:19;;;;;;;5.80;3.40;;;;;;;;;;4934474;28;20934;-54
2022/09/13 04:43:49;;;;;;;4.27;2.30;;;;;;;;;;4941670;28;20438;-56
2022/09/13 04:46:15;;;;;;;5.17;2.40;;;;;;;;;;4954590;28;20471;-55
2022/09/13 04:48:41;;;;;;;2.17;1.90;;;;;;;;;;4948985;28;20437;-56
2022/09/13 04:51:11;;;;;;;5.37;2.97;;;;;;;;;;4946268;28;20205;-56
2022/09/13 04:53:37;;;;;;;2.53;2.33;;;;;;;;;;4944218;28;20993;-57
2022/09/13 04:56:04;;;;;;;5.00;2.70;;;;;;;;;;4928950;28;20434;-57
2022/09/13 04:58:30;;;;;;;3.03;2.33;;;;;;;;;;4959897;28;20441;-56
2022/09/13 05:01:02;;;;;;;4.10;2.50;;;;;;;;;;4925865;28;20950;-57
2022/09/13 05:03:30;;;;;;;3.83;2.27;;;;;;;;;;4928104;28;20446;-57
2022/09/13 05:06:00;;;;;;;3.63;2.40;;;;;;;;;;4955060;28;20442;-57
2022/09/13 05:08:26;;;;;;;2.80;2.30;;;;;;;;;;4911928;28;20457;-57
2022/09/13 05:10:53;;;;;;;4.73;2.83;;;;;;;;;;4961495;28;20455;-58
2022/09/13 05:13:19;;;;;;;3.70;2.93;;;;;;;;;;4931331;28;20983;-57
2022/09/13 05:15:46;;;;;;;3.60;2.40;;;;;;;;;;4954320;28;20481;-57
2022/09/13 05:18:12;;;;;;;5.63;3.40;;;;;;;;;;4947742;28;20197;-55
2022/09/13 05:20:38;;;;;;;2.50;2.27;;;;;;;;;;4956914;28;20873;-56
2022/09/13 05:23:04;;;;;;;3.70;2.67;;;;;;;;;;4933032;28;21631;-58
2022/09/13 05:25:30;;;;;;;3.50;2.73;;;;;;;;;;4963520;28;20450;-56
2022/09/13 05:27:57;;;;;;;2.80;2.20;;;;;;;;;;4957741;28;20516;-56
2022/09/13 05:30:23;;;;;;;2.53;2.20;;;;;;;;;;4954146;28;20442;-56
2022/09/13 05:33:02;;;;;;;3.20;2.53;;;;;;;;;;4945773;28;20477;-56
2022/09/13 05:35:29;;;;;;;4.10;2.80;;;;;;;;;;4963191;28;20958;-57
2022/09/13 05:37:55;;;;;;;4.10;3.00;;;;;;;;;;4932005;28;20921;-56
2022/09/13 05:40:21;;;;;;;6.50;2.80;;;;;;;;;;4953003;28;23616;-54
2022/09/13 05:42:47;;;;;;;3.97;3.47;;;;;;;;;;4948445;28;20493;-56
2022/09/13 05:45:13;;;;;;;3.63;2.10;;;;;;;;;;4951614;28;21299;-56
2022/09/13 05:47:39;;;;;;;4.10;2.90;;;;;;;;;;4958261;28;20521;-56
2022/09/13 05:50:06;;;;;;;5.37;3.10;;;;;;;;;;4946429;28;20531;-55
2022/09/13 05:52:32;;;;;;;3.47;2.97;;;;;;;;;;4929385;28;20477;-57
2022/09/13 05:54:58;;;;;;;2.80;2.37;;;;;;;;;;4969668;28;20438;-56
2022/09/13 05:57:23;;;;;;;6.50;3.27;;;;;;;;;;4941494;28;20449;-57
2022/09/13 05:59:49;;;;;;;5.03;3.20;;;;;;;;;;4962588;28;20437;-57
2022/09/13 06:02:15;;;;;;;5.40;2.73;;;;;;;;;;4940497;28;20546;-56
2022/09/13 06:04:45;;;;;;;2.73;2.53;;;;;;;;;;4946322;28;20438;-57
2022/09/13 06:07:11;;;;;;;4.07;2.60;;;;;;;;;;4963341;28;20186;-58
2022/09/13 06:09:37;;;;;;;5.07;2.80;;;;;;;;;;4925837;28;21466;-57
2022/09/13 06:12:04;;;;;;;4.33;3.07;;;;;;;;;;4951098;28;21028;-62
2022/09/13 06:14:30;;;;;;;5.10;2.90;;;;;;;;;;4944799;28;20253;-56
2022/09/13 06:16:56;;;;;;;5.17;2.47;;;;;;;;;;4952561;28;20428;-56
2022/09/13 06:19:22;;;;;;;4.47;2.67;;;;;;;;;;4948587;28;20477;-57
2022/09/13 06:21:48;;;;;;;3.30;2.70;;;;;;;;;;4953795;28;21041;-56
2022/09/13 06:24:14;;;;;;;5.60;2.70;;;;;;;;;;4926795;28;20447;-56
2022/09/13 06:26:41;;;;;;;6.10;2.97;;;;;;;;;;4949267;28;20438;-55
2022/09/13 06:29:07;;;;;;;2.97;2.67;;;;;;;;;;4929993;28;20584;-56
2022/09/13 06:34:37;;;;;;;4.67;2.77;;;;;;;;;;4935815;28;20991;-57
2022/09/13 06:37:03;;;;;;;3.53;3.23;;;;;;;;;;4955666;28;20644;-57
2022/09/13 06:39:31;;;;;;;4.47;3.00;;;;;;;;;;4928963;28;20445;-56
2022/09/13 06:41:57;;;;;;;4.20;2.80;;;;;;;;;;4950384;28;20442;-56
2022/09/13 06:44:23;;;;;;;3.60;3.00;;;;;;;;;;4909169;28;20465;-56
2022/09/13 06:46:49;;;;;;;3.70;2.90;;;;;;;;;;4951519;28;20450;-56
2022/09/13 06:49:15;;;;;;;5.30;2.97;;;;;;;;;;4954583;28;20677;-56
2022/09/13 06:51:41;;;;;;;5.90;2.93;;;;;;;;;;4964562;28;20429;-57
2022/09/13 06:54:07;;;;;;;3.87;2.70;;;;;;;;;;4935861;28;20694;-56
2022/09/13 06:56:33;;;;;;;3.13;2.80;;;;;;;;;;4959336;28;20446;-58
2022/09/13 06:59:03;;;;;;;4.53;3.00;;;;;;;;;;4940938;28;20433;-57
2022/09/13 07:01:34;;;;;;;2.80;2.50;;;;;;;;;;4962059;28;20440;-56
2022/09/13 07:04:00;;;;;;;5.63;3.30;;;;;;;;;;4946845;28;20454;-57
2022/09/13 07:06:27;;;;;;;4.47;3.20;;;;;;;;;;4960978;28;20449;-56
2022/09/13 07:08:53;;;;;;;5.23;3.33;;;;;;;;;;4961257;28;20437;-56
2022/09/13 07:11:20;;;;;;;6.40;2.83;;;;;;;;;;4966055;28;20504;-61
2022/09/13 07:13:49;;;;;;;6.23;4.00;;;;;;;;;;4933270;28;20481;-57
2022/09/13 07:16:16;;;;;;;3.27;2.43;;;;;;;;;;4964177;28;20497;-54
2022/09/13 07:18:42;;;;;;;4.77;2.70;;;;;;;;;;4941469;28;20464;-57
2022/09/13 07:21:09;;;;;;;3.03;2.73;;;;;;;;;;4960142;28;20764;-57
2022/09/13 07:23:36;;;;;;;2.90;2.57;;;;;;;;;;4942731;28;20868;-57
2022/09/13 07:26:04;;;;;;;4.40;2.93;;;;;;;;;;4965822;28;20444;-58
2022/09/13 07:28:31;;;;;;;8.20;3.70;;;;;;;;;;4947144;28;20808;-56
2022/09/13 07:31:03;;;;;;;4.93;2.87;;;;;;;;;;4964473;28;20430;-57
2022/09/13 07:33:29;;;;;;;3.27;2.97;;;;;;;;;;4964478;28;20946;-57
2022/09/13 07:35:56;;;;;;;4.73;2.70;;;;;;;;;;4967549;28;20959;-57
2022/09/13 07:38:22;;;;;;;3.90;2.77;;;;;;;;;;4964521;28;20433;-57
2022/09/13 07:40:55;;;;;;;2.97;2.67;;;;;;;;;;4975240;28;20442;-57
2022/09/13 07:43:21;;;;;;;2.97;2.40;;;;;;;;;;4944976;28;20234;-57
2022/09/13 07:45:47;;;;;;;3.17;2.20;;;;;;;;;;4972157;28;20441;-57
2022/09/13 07:48:13;;;;;;;3.13;2.63;;;;;;;;;;4926215;28;20991;-57
2022/09/13 07:50:39;;;;;;;3.20;2.30;;;;;;;;;;4942228;28;20489;-59
2022/09/13 07:53:05;;;;;;;3.30;2.70;;;;;;;;;;4970703;28;20572;-58
2022/09/13 07:55:31;;;;;;;2.90;2.60;;;;;;;;;;4939848;28;20834;-55
2022/09/13 07:57:58;;;;;;;3.00;2.70;;;;;;;;;;4965328;28;20680;-56
2022/09/13 08:00:24;;;;;;;3.00;2.53;;;;;;;;;;4940243;28;20194;-57
2022/09/13 08:02:50;;;;;;;4.60;2.30;;;;;;;;;;4963301;28;20500;-55
2022/09/13 08:05:17;;;;;;;5.93;3.27;;;;;;;;;;4943817;28;20437;-56
2022/09/13 08:08:01;;;;;;;3.00;2.70;;;;;;;;;;4945571;28;22552;-55
2022/09/13 08:10:27;;;;;;;3.77;3.17;;;;;;;;;;4973518;28;20452;-56
2022/09/13 08:12:53;;;;;;;5.20;2.40;;;;;;;;;;4967705;28;20478;-55
2022/09/13 08:15:19;;;;;;;7.27;2.57;;;;;;;;;;4964100;28;20182;-56
2022/09/13 08:17:45;;;;;;;4.07;2.30;;;;;;;;;;4961478;28;20437;-55
2022/09/13 08:20:11;;;;;;;6.07;3.20;;;;;;;;;;4919149;28;20465;-56
2022/09/13 08:22:37;;;;;;;3.27;2.30;;;;;;;;;;4962409;28;20240;-56
2022/09/13 08:25:03;;;;;;;3.17;2.50;;;;;;;;;;4939922;28;20190;-56
2022/09/13 08:27:29;;;;;;;6.60;3.27;;;;;;;;;;4961266;28;20190;-56
2022/09/13 08:29:55;;;;;;;6.13;2.77;;;;;;;;;;4959200;28;20445;-56
2022/09/13 08:32:21;;;;;;;4.77;2.77;;;;;;;;;;4960901;28;20248;-56
2022/09/13 08:34:47;;;;;;;3.33;2.40;;;;;;;;;;4939299;28;20537;-56
2022/09/13 08:37:13;;;;;;;4.60;2.40;;;;;;;;;;4963161;28;20526;-56
2022/09/13 08:39:39;;;;;;;8.10;3.03;;;;;;;;;;4957371;28;20578;-56
2022/09/13 08:42:11;;;;;;;4.90;3.63;;;;;;;;;;4959836;28;20832;-56
2022/09/13 08:44:56;;;;;;;3.90;3.03;;;;;;;;;;4945927;28;20528;-56
2022/09/13 08:47:28;;;;;;;10.20;2.80;;;;;;;;;;4964183;28;20460;-56
2022/09/13 08:49:58;;;;;;;3.70;2.60;;;;;;;;;;4937533;28;20486;-57
2022/09/13 08:52:28;;;;;;;4.10;2.73;;;;;;;;;;4936426;28;20489;-55
2022/09/13 08:54:54;;;;;;;4.07;3.07;;;;;;;;;;4960712;28;20442;-57
2022/09/13 08:57:32;;;;;;;3.70;2.70;;;;;;;;;;4954176;28;21201;-57
2022/09/13 09:00:06;;;;;;;5.50;2.23;;;;;;;;;;4976066;28;20518;-58
2022/09/13 09:02:51;;;;;;;4.97;2.67;;;;;;;;;;4927598;28;23770;-56
2022/09/13 09:05:24;;;;;;;4.57;2.33;;;;;;;;;;4963358;28;20441;-56
2022/09/13 09:07:54;;;;;;;3.77;2.50;;;;;;;;;;4937073;28;20446;-56
2022/09/13 09:10:31;;;;;;;3.07;2.07;;;;;;;;;;4970876;28;20790;-56
2022/09/13 09:12:58;;;;;;;4.57;2.13;;;;;;;;;;4945805;28;20508;-57
2022/09/13 09:15:25;;;;;;;3.27;2.10;;;;;;;;;;4961855;28;20433;-57
2022/09/13 09:17:54;;;;;;;3.87;2.40;;;;;;;;;;4935253;28;20461;-60
2022/09/13 09:20:33;;;;;;;4.47;2.27;;;;;;;;;;4961209;28;20552;-57
2022/09/13 09:23:04;;;;;;;3.67;2.50;;;;;;;;;;4922561;28;20461;-57
2022/09/13 09:25:30;;;;;;;3.33;2.30;;;;;;;;;;4934835;28;20448;-58
2022/09/13 09:27:56;;;;;;;3.37;2.00;;;;;;;;;;4958066;28;20442;-58
2022/09/13 09:30:22;;;;;;;3.90;2.63;;;;;;;;;;4938569;28;21006;-55
2022/09/13 09:32:51;;;;;;;5.40;2.40;;;;;;;;;;4959784;28;20234;-57
2022/09/13 09:35:21;;;;;;;5.33;2.57;;;;;;;;;;4931526;28;20249;-57
2022/09/13 09:37:55;;;;;;;5.43;2.33;;;;;;;;;;4960878;28;20452;-57
2022/09/13 09:40:21;;;;;;;4.63;2.50;;;;;;;;;;4937449;28;20445;-57
2022/09/13 09:42:49;;;;;;;5.07;2.77;;;;;;;;;;4961615;28;20453;-56
2022/09/13 09:45:21;;;;;;;4.10;2.37;;;;;;;;;;4939357;28;20271;-57
2022/09/13 09:47:47;;;;;;;4.40;2.80;;;;;;;;;;4962670;28;20438;-60
2022/09/13 09:50:16;;;;;;;3.63;2.60;;;;;;;;;;4968267;28;20413;-57
2022/09/13 09:53:01;;;;;;;3.80;2.53;;;;;;;;;;4968999;28;20482;-57
2022/09/13 09:55:28;;;;;;;3.50;2.70;;;;;;;;;;4926443;28;20784;-56
2022/09/13 09:58:00;;;;;;;3.30;2.30;;;;;;;;;;4960479;28;20921;-57
2022/09/13 10:00:31;;;;;;;3.40;2.23;;;;;;;;;;4946253;28;20471;-57
2022/09/13 10:02:58;;;;;;;3.07;2.33;;;;;;;;;;4960670;28;20457;-57
2022/09/13 10:05:25;;;;;;;5.33;3.17;;;;;;;;;;4958039;28;20445;-57
2022/09/13 10:07:58;;;;;;;3.97;2.40;;;;;;;;;;4967860;28;20455;-59
2022/09/13 10:10:25;;;;;;;4.80;2.73;;;;;;;;;;4944474;28;21264;-58
2022/09/13 10:12:55;;;;;;;6.07;2.73;;;;;;;;;;4930846;28;20561;-56
2022/09/13 10:15:22;;;;;;;2.90;2.47;;;;;;;;;;4968142;28;20503;-57
2022/09/13 10:18:02;;;;;;;3.00;2.40;;;;;;;;;;4953870;28;20445;-56
2022/09/13 10:20:28;;;;;;;3.97;2.47;;;;;;;;;;4963851;28;20705;-57
2022/09/13 10:23:13;;;;;;;4.30;2.33;;;;;;;;;;4976295;28;20452;-57
2022/09/13 10:25:39;;;;;;;3.83;2.50;;;;;;;;;;4971244;28;20949;-57
2022/09/13 10:28:08;;;;;;;4.30;2.90;;;;;;;;;;4928795;28;20469;-55
2022/09/13 10:30:37;;;;;;;4.63;2.73;;;;;;;;;;4963838;28;20466;-56
2022/09/13 10:33:03;;;;;;;3.67;2.30;;;;;;;;;;4922081;28;20489;-58
2022/09/13 10:35:29;;;;;;;4.77;2.40;;;;;;;;;;4967266;28;20430;-59
2022/09/13 10:37:55;;;;;;;3.77;2.20;;;;;;;;;;4954243;28;20423;-57
2022/09/13 10:40:24;;;;;;;6.27;2.03;;;;;;;;;;4961617;28;20444;-57
2022/09/13 10:42:53;;;;;;;3.87;2.40;;;;;;;;;;4945503;28;20449;-55
2022/09/13 10:45:22;;;;;;;3.60;2.40;;;;;;;;;;4953569;28;20430;-56
2022/09/13 10:47:48;;;;;;;5.13;2.73;;;;;;;;;;4949043;28;20450;-56
2022/09/13 10:50:25;;;;;;;3.80;2.70;;;;;;;;;;4961714;28;20502;-55
2022/09/13 10:52:51;;;;;;;3.90;1.73;;;;;;;;;;4953280;28;20518;-55
2022/09/13 10:55:17;;;;;;;2.50;1.80;;;;;;;;;;4964172;28;20445;-58
2022/09/13 10:57:44;;;;;;;2.90;2.20;;;;;;;;;;4918687;28;20458;-56
2022/09/13 11:00:11;;;;;;;2.77;1.73;;;;;;;;;;4965591;28;20434;-55
2022/09/13 11:02:44;;;;;;;4.47;2.10;;;;;;;;;;4932225;28;20960;-55
2022/09/13 11:05:28;;;;;;;6.30;2.77;;;;;;;;;;4938068;28;20792;-58
2022/09/13 11:08:13;;;;;;;3.50;2.30;;;;;;;;;;4944753;28;20426;-59
2022/09/13 11:10:45;;;;;;;3.80;1.90;;;;;;;;;;4938830;28;20723;-56
2022/09/13 11:13:20;;;;;;;5.93;1.80;;;;;;;;;;4919066;28;20485;-56
2022/09/13 11:15:49;;;;;;;3.40;2.00;;;;;;;;;;4936343;28;20778;-57
2022/09/13 11:18:15;;;;;;;5.33;2.50;;;;;;;;;;4927586;28;20989;-56
2022/09/13 11:20:50;;;;;;;3.20;1.93;;;;;;;;;;4942864;28;21105;-57
2022/09/13 11:23:36;;;;;;;7.00;2.40;;;;;;;;;;4925774;28;20442;-57
2022/09/13 11:26:21;;;;;;;2.53;1.90;;;;;;;;;;4937917;28;20449;-57
2022/09/13 11:28:47;;;;;;;5.40;2.00;;;;;;;;;;4907353;28;20614;-57
2022/09/13 11:31:18;;;;;;;3.23;2.27;;;;;;;;;;4936704;28;20934;-57
2022/09/13 11:33:57;;;;;;;5.93;2.43;;;;;;;;;;4915340;28;20994;-57
2022/09/13 11:36:29;;;;;;;3.10;1.77;;;;;;;;;;4937422;28;20477;-57
2022/09/13 11:39:02;;;;;;;5.17;1.50;;;;;;;;;;4919312;28;20453;-56
2022/09/13 11:41:38;;;;;;;2.70;1.90;;;;;;;;;;4924754;28;20469;-56
2022/09/13 11:44:17;;;;;;;2.53;1.70;;;;;;;;;;4921633;28;20442;-55
2022/09/13 11:47:04;;;;;;;2.80;1.73;;;;;;;;;;4912052;28;20445;-57
2022/09/13 11:49:43;;;;;;;2.07;1.37;;;;;;;;;;4931972;28;20460;-56
2022/09/13 11:52:36;;;;;;;3.23;2.27;;;;;;;;;;4955174;28;20489;-56
2022/09/13 11:55:11;;;;;;;4.30;2.00;;;;;;;;;;4971203;28;20454;-57
2022/09/13 11:58:10;;;;;;;3.00;2.10;;;;;;;;;;4956981;28;20454;-57
2022/09/13 12:00:39;;;;;;;4.40;2.20;;;;;;;;;;4947294;28;20438;-57
2022/09/13 12:03:09;;;;;;;4.67;2.07;;;;;;;;;;4932080;28;20931;-57
2022/09/13 12:05:38;;;;;;;4.43;1.60;;;;;;;;;;4957687;28;21005;-57
2022/09/13 12:08:10;;;;;;;4.77;2.13;;;;;;;;;;4952904;28;20533;-57
2022/09/13 12:11:03;;;;;;;4.83;1.80;;;;;;;;;;4960851;28;20484;-57
2022/09/13 12:13:30;;;;;;;2.30;1.43;;;;;;;;;;4956969;28;20488;-57
2022/09/13 12:15:57;;;;;;;3.37;1.73;;;;;;;;;;4958186;28;20438;-57
2022/09/13 12:18:30;;;;;;;3.30;1.77;;;;;;;;;;4932663;28;20457;-57
2022/09/13 12:21:22;;;;;;;2.50;1.60;;;;;;;;;;4957375;28;20532;-57
2022/09/13 12:24:00;;;;;;;2.40;1.43;;;;;;;;;;4936883;28;20537;-56
2022/09/13 12:26:26;;;;;;;2.50;1.93;;;;;;;;;;4962914;28;21132;-56
2022/09/13 12:28:53;;;;;;;2.53;1.57;;;;;;;;;;4922062;28;20454;-59
2022/09/13 12:31:23;;;;;;;2.23;1.30;;;;;;;;;;4961656;28;20438;-56
2022/09/13 12:33:49;;;;;;;6.83;1.97;;;;;;;;;;4959184;28;20496;-58
2022/09/13 12:36:24;;;;;;;3.17;2.07;;;;;;;;;;4961766;28;20797;-56
2022/09/13 12:38:53;;;;;;;2.27;1.63;;;;;;;;;;4944136;28;20433;-56
2022/09/13 12:41:26;;;;;;;3.87;1.70;;;;;;;;;;4965101;28;20426;-58
2022/09/13 12:43:56;;;;;;;3.00;1.90;;;;;;;;;;4942097;28;20445;-57
2022/09/13 12:46:42;;;;;;;2.10;1.50;;;;;;;;;;4957783;28;20540;-56
2022/09/13 12:49:17;;;;;;;2.80;2.00;;;;;;;;;;4949984;28;20505;-61
2022/09/13 12:51:55;;;;;;;5.00;1.45;;;;;;;;;;4964608;28;20445;-58
2022/09/13 12:54:28;;;;;;;5.33;1.63;;;;;;;;;;4935912;28;20557;-58
2022/09/13 12:56:57;;;;;;;2.63;1.40;;;;;;;;;;4963304;28;20494;-57
2022/09/13 12:59:38;;;;;;;4.07;1.60;;;;;;;;;;4922968;28;20502;-57
2022/09/13 13:02:22;;;;;;;2.50;1.43;;;;;;;;;;4963560;28;20434;-57
2022/09/13 13:04:49;;;;;;;2.30;1.40;;;;;;;;;;4944016;28;20443;-57
2022/09/13 13:07:19;;;;;;;2.10;1.17;;;;;;;;;;4944921;28;20449;-57
2022/09/13 13:09:46;;;;;;;3.00;1.70;;;;;;;;;;4965139;28;20438;-57
2022/09/13 13:12:12;;;;;;;4.90;1.70;;;;;;;;;;4946707;28;21261;-57
2022/09/13 13:14:38;;;;;;;3.27;1.50;;;;;;;;;;4966710;28;20434;-59
2022/09/13 13:17:23;;;;;;;3.60;1.80;;;;;;;;;;4940219;28;20549;-56
2022/09/13 13:19:49;;;;;;;4.67;1.87;;;;;;;;;;4968958;28;20206;-57
2022/09/13 13:22:34;;;;;;;5.03;1.60;;;;;;;;;;4960107;28;20430;-57
2022/09/13 13:25:00;;;;;;;2.87;1.60;;;;;;;;;;4962939;28;20430;-57
2022/09/13 13:27:36;;;;;;;5.20;1.47;;;;;;;;;;4945739;28;20454;-57
2022/09/13 13:30:21;;;;;;;4.30;1.50;;;;;;;;;;4961191;28;20446;-58
2022/09/13 13:33:06;;;;;;;4.53;1.93;;;;;;;;;;4923902;28;20485;-56
2022/09/13 13:35:32;;;;;;;3.30;1.50;;;;;;;;;;4963646;28;20473;-56
2022/09/13 13:38:28;;;;;;;2.13;1.53;;;;;;;;;;4974452;28;20473;-56
2022/09/13 13:40:54;;;;;;;2.13;1.33;;;;;;;;;;4960610;28;21074;-56
2022/09/13 13:43:23;;;;;;;4.20;1.63;;;;;;;;;;4944274;28;20550;-56
2022/09/13 13:45:56;;;;;;;2.63;1.60;;;;;;;;;;4945914;28;21561;-57
2022/09/13 13:48:38;;;;;;;2.20;1.60;;;;;;;;;;4973024;28;20458;-55
2022/09/13 13:51:14;;;;;;;2.57;1.50;;;;;;;;;;4957197;28;20452;-56
2022/09/13 13:53:41;;;;;;;2.63;1.17;;;;;;;;;;4964893;28;20487;-57
2022/09/13 13:56:22;;;;;;;2.13;1.27;;;;;;;;;;4953925;28;20437;-58
2022/09/13 13:58:48;;;;;;;2.50;1.30;;;;;;;;;;4964519;28;20461;-56
2022/09/13 14:01:22;;;;;;;2.20;1.40;;;;;;;;;;4945301;28;23929;-57
2022/09/13 14:03:51;;;;;;;2.67;1.10;;;;;;;;;;4957333;28;20548;-56
2022/09/13 14:06:42;;;;;;;2.47;1.47;;;;;;;;;;4966890;28;20442;-58
2022/09/13 14:09:12;;;;;;;3.30;1.30;;;;;;;;;;4961817;28;20447;-56
2022/09/13 14:11:46;;;;;;;2.00;1.23;;;;;;;;;;4957773;28;20445;-56
2022/09/13 14:14:24;;;;;;;2.53;1.33;;;;;;;;;;4976202;28;20539;-57
2022/09/13 14:17:01;;;;;;;3.40;1.20;;;;;;;;;;4935303;28;20475;-55
2022/09/13 14:19:29;;;;;;;2.70;1.00;;;;;;;;;;4962533;28;20484;-56
2022/09/13 14:22:04;;;;;;;3.00;1.30;;;;;;;;;;4928975;28;20585;-57
2022/09/13 14:24:30;;;;;;;2.47;1.17;;;;;;;;;;4948112;28;20444;-56
2022/09/13 14:27:00;;;;;;;3.00;1.13;;;;;;;;;;4934302;28;21285;-57
2022/09/13 14:29:26;;;;;;;3.40;1.37;;;;;;;;;;4938879;28;20490;-56
2022/09/13 14:31:53;;;;;;;2.67;1.57;;;;;;;;;;4948771;28;21175;-55
2022/09/13 14:34:20;;;;;;;2.47;1.10;;;;;;;;;;4951965;28;20446;-57
2022/09/13 14:39:53;;;;;;;2.90;1.23;;;;;;;;;;4951111;28;20527;-55
2022/09/13 14:42:19;;;;;;;2.57;1.30;;;;;;;;;;4954638;28;20680;-58
2022/09/13 14:44:45;;;;;;;2.13;1.30;;;;;;;;;;4974542;28;20444;-57
2022/09/13 14:47:20;;;;;;;3.83;1.33;;;;;;;;;;4946544;28;20191;-57
2022/09/13 14:49:48;;;;;;;4.53;1.30;;;;;;;;;;4979438;28;20539;-58
2022/09/13 14:52:20;;;;;;;2.93;1.67;;;;;;;;;;4941925;28;22469;-57
2022/09/13 14:54:49;;;;;;;2.00;1.40;;;;;;;;;;4967982;28;21030;-57
2022/09/13 14:57:27;;;;;;;2.50;1.80;;;;;;;;;;4943475;28;20554;-56
2022/09/13 14:59:55;;;;;;;3.23;1.70;;;;;;;;;;4967274;28;20441;-57
2022/09/13 15:02:28;;;;;;;3.57;1.57;;;;;;;;;;4948369;28;20454;-57
2022/09/13 15:04:55;;;;;;;3.40;1.63;;;;;;;;;;4972780;28;20448;-57
2022/09/13 15:07:21;;;;;;;4.03;1.57;;;;;;;;;;4969483;28;20760;-57